Time;durP1;ratioP1;P1;durP2;ratioP2;P2;SDS_P1;SDS_P2;PMS_P1;PMS_P2;Temp;Humidity;BMP_temperature;BMP_pressure;BME280_temperature;BME280_humidity;BME280_pressure;Samples;Min_cycle;Max_cycle;Signal;HPM_P1;HPM_P2
2024/04/11 00:02:05;;;;;;;117.10;111.20;;;;;;;;;;5470624;26;20037;-59
2024/04/11 00:04:30;;;;;;;111.15;105.50;;;;;;;;;;5474089;26;20002;-60
2024/04/11 00:06:56;;;;;;;118.47;112.50;;;;;;;;;;5475511;26;20013;-58
2024/04/11 00:09:21;;;;;;;108.03;102.45;;;;;;;;;;5475973;26;20320;-58
2024/04/11 00:11:46;;;;;;;109.28;103.72;;;;;;;;;;5442081;26;20021;-59
2024/04/11 00:14:12;;;;;;;108.88;103.38;;;;;;;;;;5476172;26;20002;-55
2024/04/11 00:16:37;;;;;;;109.43;103.88;;;;;;;;;;5463602;26;20014;-56
2024/04/11 00:19:03;;;;;;;111.40;105.72;;;;;;;;;;5470146;26;20010;-57
2024/04/11 00:21:28;;;;;;;108.32;102.85;;;;;;;;;;5471385;26;20006;-57
2024/04/11 00:23:53;;;;;;;113.10;107.30;;;;;;;;;;5474940;26;20010;-58
2024/04/11 00:26:19;;;;;;;119.30;113.20;;;;;;;;;;5471160;26;20016;-59
2024/04/11 00:28:44;;;;;;;103.25;98.05;;;;;;;;;;5473225;26;20002;-57
2024/04/11 00:31:09;;;;;;;94.85;90.13;;;;;;;;;;5470083;26;20013;-59
2024/04/11 00:33:37;;;;;;;88.28;83.85;;;;;;;;;;5451565;26;20017;-58
2024/04/11 00:36:05;;;;;;;91.55;86.97;;;;;;;;;;5439857;26;20057;-59
2024/04/11 00:38:33;;;;;;;90.18;85.60;;;;;;;;;;5473254;26;20029;-59
2024/04/11 00:40:59;;;;;;;100.35;95.30;;;;;;;;;;5471144;26;20051;-56
2024/04/11 00:43:35;;;;;;;111.55;105.88;;;;;;;;;;5446119;26;20325;-57
2024/04/11 00:46:01;;;;;;;111.45;105.72;;;;;;;;;;5480486;26;20444;-56
2024/04/11 00:48:26;;;;;;;118.63;112.35;;;;;;;;;;5465699;26;20079;-57
2024/04/11 00:50:52;;;;;;;118.47;112.50;;;;;;;;;;5478958;25;20050;-57
2024/04/11 00:53:21;;;;;;;117.05;111.13;;;;;;;;;;5442725;26;20003;-56
2024/04/11 00:55:46;;;;;;;123.28;116.93;;;;;;;;;;5476269;26;20005;-58
2024/04/11 00:58:12;;;;;;;122.20;115.95;;;;;;;;;;5470852;26;20029;-55
2024/04/11 01:00:40;;;;;;;130.43;123.85;;;;;;;;;;5470853;26;20006;-54
2024/04/11 01:03:06;;;;;;;134.10;127.35;;;;;;;;;;5476288;26;20006;-57
2024/04/11 01:05:32;;;;;;;108.57;103.15;;;;;;;;;;5462877;25;20005;-55
2024/04/11 01:07:57;;;;;;;111.03;105.35;;;;;;;;;;5478191;26;20013;-56
2024/04/11 01:10:23;;;;;;;106.97;101.63;;;;;;;;;;5469829;26;20009;-56
2024/04/11 01:12:49;;;;;;;102.35;97.20;;;;;;;;;;5477029;26;20021;-56
2024/04/11 01:15:15;;;;;;;103.35;98.18;;;;;;;;;;5470815;26;20045;-55
2024/04/11 01:17:40;;;;;;;92.13;87.55;;;;;;;;;;5443574;26;20006;-58
2024/04/11 01:20:06;;;;;;;92.95;88.32;;;;;;;;;;5471689;26;20017;-59
2024/04/11 01:22:40;;;;;;;91.50;86.93;;;;;;;;;;5446701;26;20018;-56
2024/04/11 01:25:08;;;;;;;82.57;78.40;;;;;;;;;;5465506;26;20003;-56
2024/04/11 01:27:34;;;;;;;78.40;74.50;;;;;;;;;;5467630;26;20028;-57
2024/04/11 01:30:02;;;;;;;75.85;71.63;;;;;;;;;;5469783;26;20014;-57
2024/04/11 01:32:28;;;;;;;77.10;73.28;;;;;;;;;;5472389;26;20021;-57
2024/04/11 01:34:56;;;;;;;79.00;75.05;;;;;;;;;;5468220;26;20076;-53
2024/04/11 01:37:22;;;;;;;73.78;70.10;;;;;;;;;;5470856;26;20036;-52
2024/04/11 01:39:47;;;;;;;76.32;72.55;;;;;;;;;;5475982;26;20020;-57
2024/04/11 01:42:13;;;;;;;76.00;71.95;;;;;;;;;;5471299;26;20005;-57
2024/04/11 01:44:38;;;;;;;84.70;80.50;;;;;;;;;;5464219;26;20010;-57
2024/04/11 01:47:04;;;;;;;96.93;91.85;;;;;;;;;;5470978;26;20014;-58
2024/04/11 01:49:31;;;;;;;113.43;107.75;;;;;;;;;;5466421;26;20334;-58
2024/04/11 01:51:57;;;;;;;119.47;113.47;;;;;;;;;;5467167;26;21173;-57
2024/04/11 01:54:23;;;;;;;119.65;113.65;;;;;;;;;;5473083;26;20006;-57
2024/04/11 01:56:49;;;;;;;115.68;109.90;;;;;;;;;;5473878;26;20087;-57
2024/04/11 01:59:16;;;;;;;122.70;116.55;;;;;;;;;;5475815;26;20050;-56
2024/04/11 02:01:41;;;;;;;121.75;115.55;;;;;;;;;;5481712;26;20014;-55
2024/04/11 02:04:09;;;;;;;128.02;121.63;;;;;;;;;;5470667;26;20006;-55
2024/04/11 02:06:38;;;;;;;116.25;110.43;;;;;;;;;;5474158;26;21088;-58
2024/04/11 02:09:15;;;;;;;98.10;93.22;;;;;;;;;;5439364;26;20468;-58
2024/04/11 02:11:46;;;;;;;83.70;79.53;;;;;;;;;;5468093;26;20009;-57
2024/04/11 02:14:12;;;;;;;83.72;79.43;;;;;;;;;;5466544;26;20018;-58
2024/04/11 02:16:37;;;;;;;81.40;77.38;;;;;;;;;;5479193;26;20050;-58
2024/04/11 02:19:06;;;;;;;75.78;71.88;;;;;;;;;;5464671;26;20721;-57
2024/04/11 02:21:38;;;;;;;76.05;72.25;;;;;;;;;;5469842;26;20029;-58
2024/04/11 02:24:06;;;;;;;;;;;;;;;;;;5467632;26;20110;-58
2024/04/11 02:26:34;;;;;;;67.32;63.92;;;;;;;;;;5466741;26;19938;-57
2024/04/11 02:29:00;;;;;;;72.78;69.15;;;;;;;;;;5433619;26;20007;-57
2024/04/11 02:31:26;;;;;;;75.85;72.07;;;;;;;;;;5471400;26;20007;-56
2024/04/11 02:33:53;;;;;;;80.18;76.13;;;;;;;;;;5452489;26;20021;-58
2024/04/11 02:36:19;;;;;;;75.03;71.28;;;;;;;;;;5478362;26;20020;-56
2024/04/11 02:38:45;;;;;;;75.13;71.32;;;;;;;;;;5479690;26;20336;-56
2024/04/11 02:41:10;;;;;;;80.40;76.32;;;;;;;;;;5473235;26;20637;-56
2024/04/11 02:43:39;;;;;;;91.10;86.55;;;;;;;;;;5446247;26;20021;-57
2024/04/11 02:46:15;;;;;;;97.50;92.60;;;;;;;;;;5440379;26;20028;-57
2024/04/11 02:48:44;;;;;;;95.75;90.93;;;;;;;;;;5478170;26;20095;-60
2024/04/11 02:51:09;;;;;;;101.65;96.57;;;;;;;;;;5473964;25;20628;-58
2024/04/11 02:53:38;;;;;;;100.85;95.80;;;;;;;;;;5471655;26;20126;-53
2024/04/11 02:56:07;;;;;;;85.88;81.63;;;;;;;;;;5481544;26;20010;-56
2024/04/11 02:58:33;;;;;;;86.22;81.93;;;;;;;;;;5478071;26;20038;-56
2024/04/11 03:01:00;;;;;;;77.00;73.15;;;;;;;;;;5474447;26;20006;-55
2024/04/11 03:03:25;;;;;;;77.50;73.65;;;;;;;;;;5472677;26;20077;-57
2024/04/11 03:05:50;;;;;;;72.30;68.45;;;;;;;;;;5475200;26;20027;-58
2024/04/11 03:08:16;;;;;;;70.15;66.68;;;;;;;;;;5474061;26;20419;-59
2024/04/11 03:10:42;;;;;;;67.22;63.85;;;;;;;;;;5479135;26;20797;-56
2024/04/11 03:13:08;;;;;;;64.75;61.50;;;;;;;;;;5479764;26;20525;-55
2024/04/11 03:15:33;;;;;;;64.93;61.67;;;;;;;;;;5474661;26;20022;-55
2024/04/11 03:17:58;;;;;;;62.08;58.95;;;;;;;;;;5474352;26;20006;-54
2024/04/11 03:20:24;;;;;;;63.40;60.20;;;;;;;;;;5476398;26;20002;-56
2024/04/11 03:22:49;;;;;;;58.90;55.95;;;;;;;;;;5468236;26;20016;-55
2024/04/11 03:25:14;;;;;;;60.72;57.67;;;;;;;;;;5475474;26;20006;-54
2024/04/11 03:27:40;;;;;;;58.35;55.40;;;;;;;;;;5474939;26;20023;-53
2024/04/11 03:30:05;;;;;;;55.53;52.67;;;;;;;;;;5465514;26;20456;-57
2024/04/11 03:32:31;;;;;;;57.00;54.10;;;;;;;;;;5462975;26;20050;-57
2024/04/11 03:34:57;;;;;;;56.20;53.35;;;;;;;;;;5466779;26;20021;-58
2024/04/11 03:37:23;;;;;;;57.42;54.53;;;;;;;;;;5467287;26;20017;-56
2024/04/11 03:39:48;;;;;;;58.72;55.78;;;;;;;;;;5472847;26;20471;-56
2024/04/11 03:42:14;;;;;;;55.30;52.50;;;;;;;;;;5440475;26;20022;-59
2024/04/11 03:44:42;;;;;;;53.92;51.20;;;;;;;;;;5471936;26;20002;-56
2024/04/11 03:47:08;;;;;;;57.95;55.03;;;;;;;;;;5471784;25;20469;-55
2024/04/11 03:49:34;;;;;;;62.88;59.63;;;;;;;;;;5441739;26;20006;-53
2024/04/11 03:52:00;;;;;;;58.33;55.40;;;;;;;;;;5474357;26;20006;-56
2024/04/11 03:54:25;;;;;;;57.78;54.88;;;;;;;;;;5451861;26;20021;-56
2024/04/11 03:56:51;;;;;;;56.15;53.33;;;;;;;;;;5450858;26;20362;-55
2024/04/11 03:59:16;;;;;;;59.15;55.85;;;;;;;;;;5475352;26;20073;-57
2024/04/11 04:01:41;;;;;;;61.13;58.00;;;;;;;;;;5472007;26;20382;-58
2024/04/11 04:04:07;;;;;;;76.25;72.35;;;;;;;;;;5473508;26;20091;-57
2024/04/11 04:06:33;;;;;;;65.32;62.03;;;;;;;;;;5471110;26;20003;-58
2024/04/11 04:08:59;;;;;;;72.35;68.70;;;;;;;;;;5473044;26;20304;-58
2024/04/11 04:11:25;;;;;;;77.78;73.85;;;;;;;;;;5448034;26;20010;-58
2024/04/11 04:13:52;;;;;;;78.78;74.85;;;;;;;;;;5478477;26;20032;-57
2024/04/11 04:16:18;;;;;;;79.90;75.93;;;;;;;;;;5444812;26;20054;-57
2024/04/11 04:18:52;;;;;;;82.38;78.28;;;;;;;;;;5481934;26;20502;-55
2024/04/11 04:21:20;;;;;;;82.70;78.55;;;;;;;;;;5478040;26;20010;-57
2024/04/11 04:23:48;;;;;;;73.78;69.88;;;;;;;;;;5477586;25;20005;-57
2024/04/11 04:26:20;;;;;;;72.32;68.72;;;;;;;;;;5467814;26;20002;-58
2024/04/11 04:28:45;;;;;;;67.70;64.32;;;;;;;;;;5472278;26;20002;-57
2024/04/11 04:31:15;;;;;;;60.47;57.42;;;;;;;;;;5470287;26;20009;-58
2024/04/11 04:33:47;;;;;;;55.20;52.38;;;;;;;;;;5446730;26;20005;-58
2024/04/11 04:36:16;;;;;;;70.07;66.53;;;;;;;;;;5473381;26;20028;-58
2024/04/11 04:38:44;;;;;;;65.05;61.53;;;;;;;;;;5472199;26;20002;-58
2024/04/11 04:41:10;;;;;;;66.80;63.42;;;;;;;;;;5434742;26;20011;-57
2024/04/11 04:43:36;;;;;;;75.03;71.28;;;;;;;;;;5466526;26;20021;-58
2024/04/11 04:46:02;;;;;;;74.28;70.57;;;;;;;;;;5464583;26;20382;-58
2024/04/11 04:48:28;;;;;;;68.20;64.60;;;;;;;;;;5445157;26;20014;-57
2024/04/11 04:50:54;;;;;;;68.10;64.70;;;;;;;;;;5474069;26;20006;-56
2024/04/11 04:53:20;;;;;;;63.97;60.75;;;;;;;;;;5469832;26;20012;-57
2024/04/11 04:55:46;;;;;;;60.92;57.72;;;;;;;;;;5477471;25;19998;-57
2024/04/11 04:58:11;;;;;;;56.22;53.33;;;;;;;;;;5468474;26;20016;-56
2024/04/11 05:00:37;;;;;;;55.78;52.92;;;;;;;;;;5482782;26;20005;-57
2024/04/11 05:03:10;;;;;;;55.38;52.55;;;;;;;;;;5467768;26;20007;-56
2024/04/11 05:05:38;;;;;;;59.72;56.72;;;;;;;;;;5470835;26;20142;-56
2024/04/11 05:08:07;;;;;;;65.70;62.17;;;;;;;;;;5477524;26;20498;-55
2024/04/11 05:10:34;;;;;;;70.68;67.10;;;;;;;;;;5470951;26;20010;-58
2024/04/11 05:13:01;;;;;;;75.40;71.65;;;;;;;;;;5482242;26;20438;-56
2024/04/11 05:15:27;;;;;;;78.20;74.32;;;;;;;;;;5481384;26;20057;-56
2024/04/11 05:17:53;;;;;;;77.53;73.63;;;;;;;;;;5479190;26;20526;-58
2024/04/11 05:20:21;;;;;;;73.35;69.68;;;;;;;;;;5472160;26;20001;-55
2024/04/11 05:22:51;;;;;;;72.68;68.97;;;;;;;;;;5475708;26;20015;-56
2024/04/11 05:25:19;;;;;;;69.05;65.47;;;;;;;;;;5473467;26;20440;-57
2024/04/11 05:27:46;;;;;;;69.57;66.10;;;;;;;;;;5478364;26;20078;-56
2024/04/11 05:30:12;;;;;;;61.28;58.17;;;;;;;;;;5450542;26;20017;-53
2024/04/11 05:32:38;;;;;;;64.20;60.95;;;;;;;;;;5465884;26;20014;-55
2024/04/11 05:35:09;;;;;;;73.93;70.22;;;;;;;;;;5464246;26;20025;-56
2024/04/11 05:37:36;;;;;;;71.23;67.57;;;;;;;;;;5470001;26;20028;-55
2024/04/11 05:40:05;;;;;;;66.15;62.85;;;;;;;;;;5462796;26;21217;-59
2024/04/11 05:42:35;;;;;;;71.43;67.75;;;;;;;;;;5432201;26;21547;-56
2024/04/11 05:45:02;;;;;;;70.45;66.85;;;;;;;;;;5472052;26;20057;-56
2024/04/11 05:47:28;;;;;;;72.40;68.70;;;;;;;;;;5466448;26;20033;-55
2024/04/11 05:49:54;;;;;;;78.22;74.18;;;;;;;;;;5463605;26;20002;-55
2024/04/11 05:52:19;;;;;;;78.28;74.20;;;;;;;;;;5467389;26;20010;-54
2024/04/11 05:54:44;;;;;;;78.53;74.57;;;;;;;;;;5459439;26;20021;-59
2024/04/11 05:57:10;;;;;;;81.85;77.78;;;;;;;;;;5476122;26;20043;-58
2024/04/11 05:59:36;;;;;;;79.18;75.15;;;;;;;;;;5466497;25;20463;-56
2024/04/11 06:02:03;;;;;;;77.97;74.03;;;;;;;;;;5471007;26;20010;-58
2024/04/11 06:04:29;;;;;;;86.25;81.90;;;;;;;;;;5479318;25;19998;-54
2024/04/11 06:06:54;;;;;;;77.88;74.00;;;;;;;;;;5481570;26;20016;-58
2024/04/11 06:09:20;;;;;;;69.20;65.70;;;;;;;;;;5468823;26;20034;-58
2024/04/11 06:11:45;;;;;;;66.75;63.45;;;;;;;;;;5472525;26;20006;-58
2024/04/11 06:14:10;;;;;;;67.30;63.90;;;;;;;;;;5468020;26;20002;-59
2024/04/11 06:16:39;;;;;;;61.33;58.22;;;;;;;;;;5469952;26;20033;-56
2024/04/11 06:19:06;;;;;;;60.28;57.25;;;;;;;;;;5470718;26;20083;-58
2024/04/11 06:21:36;;;;;;;43.83;41.45;;;;;;;;;;5454060;26;20014;-58
2024/04/11 06:24:04;;;;;;;30.00;28.30;;;;;;;;;;5476129;26;20014;-58
2024/04/11 06:26:30;;;;;;;32.78;31.08;;;;;;;;;;5476998;26;20009;-57
2024/04/11 06:28:56;;;;;;;32.80;30.85;;;;;;;;;;5465016;26;20349;-59
2024/04/11 06:31:28;;;;;;;29.70;28.10;;;;;;;;;;5475659;26;20079;-59
2024/04/11 06:33:54;;;;;;;32.15;30.45;;;;;;;;;;5464604;26;20046;-59
2024/04/11 06:36:20;;;;;;;32.58;30.83;;;;;;;;;;5476751;26;20070;-59
2024/04/11 06:38:48;;;;;;;38.28;36.28;;;;;;;;;;5472383;26;20491;-59
2024/04/11 06:41:18;;;;;;;44.35;42.08;;;;;;;;;;5474777;26;20264;-56
2024/04/11 06:43:46;;;;;;;43.17;40.92;;;;;;;;;;5468665;26;20006;-57
2024/04/11 06:46:13;;;;;;;45.70;43.33;;;;;;;;;;5468486;26;20014;-59
2024/04/11 06:48:41;;;;;;;49.80;47.25;;;;;;;;;;5471237;26;20066;-59
2024/04/11 06:51:09;;;;;;;57.72;54.78;;;;;;;;;;5470971;26;20002;-57
2024/04/11 06:53:36;;;;;;;75.13;71.38;;;;;;;;;;5435198;26;20428;-57
2024/04/11 06:56:07;;;;;;;66.53;63.22;;;;;;;;;;5470217;26;20077;-56
2024/04/11 06:58:34;;;;;;;68.50;64.97;;;;;;;;;;5482489;26;20520;-59
2024/04/11 07:01:00;;;;;;;88.65;84.25;;;;;;;;;;5470108;26;20010;-59
2024/04/11 07:03:26;;;;;;;63.78;60.05;;;;;;;;;;5474416;26;20012;-59
2024/04/11 07:05:55;;;;;;;54.70;51.90;;;;;;;;;;5472462;26;20006;-59
2024/04/11 07:08:29;;;;;;;51.50;48.80;;;;;;;;;;5469136;26;20020;-59
2024/04/11 07:11:23;;;;;;;59.63;56.60;;;;;;;;;;5428279;26;20527;-60
2024/04/11 07:13:49;;;;;;;51.95;48.97;;;;;;;;;;5448773;26;20417;-59
2024/04/11 07:16:20;;;;;;;51.50;48.60;;;;;;;;;;5477545;26;20022;-59
2024/04/11 07:18:48;;;;;;;44.70;42.33;;;;;;;;;;5476244;25;20026;-58
2024/04/11 07:21:19;;;;;;;48.15;45.67;;;;;;;;;;5445559;26;20088;-57
2024/04/11 07:23:53;;;;;;;50.28;47.67;;;;;;;;;;5474073;26;20006;-59
2024/04/11 07:26:22;;;;;;;40.70;38.60;;;;;;;;;;5489881;26;20028;-59
2024/04/11 07:28:50;;;;;;;44.88;42.08;;;;;;;;;;5478704;26;20009;-59
2024/04/11 07:31:16;;;;;;;42.42;40.13;;;;;;;;;;5453350;26;20443;-59
2024/04/11 07:33:42;;;;;;;58.65;55.65;;;;;;;;;;5472109;26;20009;-59
2024/04/11 07:36:09;;;;;;;78.72;73.82;;;;;;;;;;5474930;26;20002;-58
2024/04/11 07:38:38;;;;;;;93.28;88.65;;;;;;;;;;5433607;26;20429;-59
2024/04/11 07:41:16;;;;;;;99.82;94.70;;;;;;;;;;5474450;26;20024;-59
2024/04/11 07:43:51;;;;;;;102.70;97.53;;;;;;;;;;5434190;26;20421;-59
2024/04/11 07:46:22;;;;;;;95.38;90.47;;;;;;;;;;5468605;26;20109;-59
2024/04/11 07:48:47;;;;;;;107.03;101.63;;;;;;;;;;5462884;26;20421;-59
2024/04/11 07:51:16;;;;;;;90.78;86.22;;;;;;;;;;5466126;26;20002;-58
2024/04/11 07:53:43;;;;;;;98.47;93.50;;;;;;;;;;5432037;26;20013;-58
2024/04/11 07:56:09;;;;;;;79.55;75.55;;;;;;;;;;5470914;26;20404;-58
2024/04/11 07:58:35;;;;;;;54.28;51.53;;;;;;;;;;5466103;26;20032;-58
2024/04/11 08:01:02;;;;;;;110.95;105.43;;;;;;;;;;5449599;26;20022;-58
2024/04/11 08:03:27;;;;;;;55.10;52.08;;;;;;;;;;5476572;26;20087;-57
2024/04/11 08:05:53;;;;;;;77.63;73.72;;;;;;;;;;5479830;26;20789;-59
2024/04/11 08:08:20;;;;;;;71.38;67.78;;;;;;;;;;5473632;26;20633;-59
2024/04/11 08:10:47;;;;;;;50.38;47.78;;;;;;;;;;5484001;26;20006;-59
2024/04/11 08:13:13;;;;;;;54.55;51.75;;;;;;;;;;5477212;26;20421;-59
2024/04/11 08:15:40;;;;;;;68.22;64.72;;;;;;;;;;5480842;25;20450;-58
2024/04/11 08:18:06;;;;;;;64.13;60.83;;;;;;;;;;5433966;26;20016;-57
2024/04/11 08:20:32;;;;;;;56.35;53.53;;;;;;;;;;5481121;26;20002;-59
2024/04/11 08:22:58;;;;;;;61.78;58.65;;;;;;;;;;5481376;25;20005;-58
2024/04/11 08:25:24;;;;;;;72.88;69.15;;;;;;;;;;5469087;26;20065;-58
2024/04/11 08:27:50;;;;;;;81.07;77.00;;;;;;;;;;5477751;26;20017;-58
2024/04/11 08:30:15;;;;;;;76.13;72.20;;;;;;;;;;5473113;26;20010;-59
2024/04/11 08:32:45;;;;;;;87.93;83.45;;;;;;;;;;5472649;26;20025;-59
2024/04/11 08:35:18;;;;;;;99.68;94.63;;;;;;;;;;5442334;26;20462;-60
2024/04/11 08:37:51;;;;;;;89.32;84.82;;;;;;;;;;5472035;26;20011;-60
2024/04/11 08:40:17;;;;;;;98.47;93.55;;;;;;;;;;5473581;26;20005;-59
2024/04/11 08:42:43;;;;;;;203.85;193.63;;;;;;;;;;5473280;26;20019;-60
2024/04/11 08:45:09;;;;;;;141.07;134.13;;;;;;;;;;5478535;26;20095;-61
2024/04/11 08:47:35;;;;;;;204.43;194.40;;;;;;;;;;5473563;26;20385;-60
2024/04/11 08:50:02;;;;;;;133.90;127.13;;;;;;;;;;5470127;26;20006;-59
2024/04/11 08:52:31;;;;;;;226.73;215.52;;;;;;;;;;5434631;26;20378;-59
2024/04/11 08:54:57;;;;;;;224.77;213.73;;;;;;;;;;5467016;26;20320;-59
2024/04/11 08:57:22;;;;;;;195.13;185.48;;;;;;;;;;5463850;26;20005;-58
2024/04/11 08:59:48;;;;;;;208.40;198.13;;;;;;;;;;5470594;26;19998;-61
2024/04/11 09:02:14;;;;;;;207.65;197.35;;;;;;;;;;5470347;26;20003;-60
2024/04/11 09:04:39;;;;;;;210.73;200.25;;;;;;;;;;5465560;26;20069;-60
2024/04/11 09:07:05;;;;;;;125.63;119.40;;;;;;;;;;5463271;25;20016;-60
2024/04/11 09:09:31;;;;;;;209.13;198.85;;;;;;;;;;5472424;26;20412;-60
2024/04/11 09:11:56;;;;;;;215.02;204.50;;;;;;;;;;5468239;26;20450;-59
2024/04/11 09:14:23;;;;;;;169.10;160.55;;;;;;;;;;5474885;26;20079;-59
2024/04/11 09:17:02;;;;;;;145.45;138.25;;;;;;;;;;5469032;26;20015;-59
2024/04/11 09:19:27;;;;;;;123.38;116.85;;;;;;;;;;5478419;26;20037;-59
2024/04/11 09:21:53;;;;;;;124.68;118.43;;;;;;;;;;5445784;26;20419;-59
2024/04/11 09:24:18;;;;;;;136.73;129.95;;;;;;;;;;5471103;26;20002;-60
2024/04/11 09:26:45;;;;;;;115.93;110.20;;;;;;;;;;5473010;25;20056;-60
2024/04/11 09:29:13;;;;;;;99.82;94.50;;;;;;;;;;5474712;26;20442;-60
2024/04/11 09:31:39;;;;;;;102.30;97.13;;;;;;;;;;5475737;26;20046;-59
2024/04/11 09:34:14;;;;;;;93.53;88.78;;;;;;;;;;5473256;26;20010;-59
2024/04/11 09:36:47;;;;;;;112.57;106.97;;;;;;;;;;5468017;25;20017;-60
2024/04/11 09:39:41;;;;;;;93.07;88.07;;;;;;;;;;5469782;26;20030;-60
2024/04/11 09:42:11;;;;;;;89.18;84.72;;;;;;;;;;5476452;26;20385;-60
2024/04/11 09:44:44;;;;;;;117.93;112.07;;;;;;;;;;5471882;26;20020;-59
2024/04/11 09:47:14;;;;;;;111.53;106.00;;;;;;;;;;5470909;26;20332;-60
2024/04/11 09:49:40;;;;;;;118.15;112.20;;;;;;;;;;5471775;26;20006;-60
2024/04/11 09:52:10;;;;;;;125.63;119.40;;;;;;;;;;5467497;26;20011;-60
2024/04/11 09:54:38;;;;;;;169.70;161.35;;;;;;;;;;5464358;26;20434;-60
2024/04/11 09:57:05;;;;;;;129.00;122.63;;;;;;;;;;5467719;26;20010;-60
2024/04/11 09:59:31;;;;;;;199.60;189.63;;;;;;;;;;5474034;26;20048;-59
2024/04/11 10:02:01;;;;;;;154.23;146.65;;;;;;;;;;5464724;26;20009;-60
2024/04/11 10:04:35;;;;;;;118.15;111.80;;;;;;;;;;5467174;26;20675;-59
2024/04/11 10:07:08;;;;;;;127.18;120.78;;;;;;;;;;5475241;26;20002;-59
2024/04/11 10:09:34;;;;;;;118.55;112.72;;;;;;;;;;5470117;26;20002;-60
2024/04/11 10:12:09;;;;;;;110.55;105.07;;;;;;;;;;5471388;26;20416;-60
2024/04/11 10:14:35;;;;;;;117.47;111.68;;;;;;;;;;5473037;26;20018;-60
2024/04/11 10:17:04;;;;;;;111.15;105.38;;;;;;;;;;5464575;26;19997;-60
2024/04/11 10:19:35;;;;;;;115.40;109.70;;;;;;;;;;5476206;26;20010;-60
2024/04/11 10:22:01;;;;;;;;;;;;;;;;;;5477874;26;20006;-58
2024/04/11 10:24:31;;;;;;;89.10;84.72;;;;;;;;;;5478647;26;19953;-60
2024/04/11 10:27:10;;;;;;;107.97;102.63;;;;;;;;;;5475514;26;20012;-59
2024/04/11 10:29:46;;;;;;;103.93;98.55;;;;;;;;;;5480986;26;20024;-60
2024/04/11 10:32:22;;;;;;;94.93;90.25;;;;;;;;;;5468473;26;20014;-60
2024/04/11 10:34:55;;;;;;;92.00;87.43;;;;;;;;;;5463187;26;19994;-58
2024/04/11 10:37:23;;;;;;;90.40;85.88;;;;;;;;;;5466618;26;20002;-60
2024/04/11 10:39:54;;;;;;;92.53;87.95;;;;;;;;;;5461183;26;20011;-58
2024/04/11 10:42:20;;;;;;;89.55;85.13;;;;;;;;;;5470386;26;20007;-58
2024/04/11 10:44:45;;;;;;;80.38;76.40;;;;;;;;;;5479437;26;20045;-58
2024/04/11 10:47:13;;;;;;;89.05;84.68;;;;;;;;;;5478394;25;20002;-59
2024/04/11 10:49:41;;;;;;;92.60;87.95;;;;;;;;;;5488729;26;20025;-58
2024/04/11 10:52:10;;;;;;;82.18;78.07;;;;;;;;;;5479783;26;20006;-58
2024/04/11 10:54:36;;;;;;;78.53;73.70;;;;;;;;;;5469674;26;20001;-59
2024/04/11 10:57:03;;;;;;;102.47;97.32;;;;;;;;;;5474664;26;20013;-59
2024/04/11 10:59:32;;;;;;;98.07;92.78;;;;;;;;;;5448202;26;20443;-60
2024/04/11 11:02:07;;;;;;;95.38;90.65;;;;;;;;;;5468579;26;20045;-58
2024/04/11 11:04:34;;;;;;;102.35;97.03;;;;;;;;;;5467220;26;20018;-58
2024/04/11 11:07:09;;;;;;;89.35;84.90;;;;;;;;;;5471993;26;20545;-58
2024/04/11 11:09:37;;;;;;;105.32;100.05;;;;;;;;;;5460709;26;20006;-59
2024/04/11 11:12:04;;;;;;;91.28;86.68;;;;;;;;;;5474421;26;20094;-59
2024/04/11 11:14:29;;;;;;;104.07;98.95;;;;;;;;;;5476456;26;20363;-61
2024/04/11 11:17:01;;;;;;;106.60;101.32;;;;;;;;;;5477071;26;20004;-59
2024/04/11 11:19:30;;;;;;;107.43;102.13;;;;;;;;;;5441054;26;20007;-60
2024/04/11 11:21:59;;;;;;;108.70;103.20;;;;;;;;;;5475500;26;20050;-59
2024/04/11 11:24:27;;;;;;;116.95;111.13;;;;;;;;;;5478162;26;20096;-60
2024/04/11 11:26:57;;;;;;;102.10;97.05;;;;;;;;;;5480926;26;20173;-59
2024/04/11 11:29:27;;;;;;;130.00;123.53;;;;;;;;;;5477569;26;19998;-58
2024/04/11 11:32:01;;;;;;;156.18;148.43;;;;;;;;;;5473450;26;20003;-59
2024/04/11 11:34:29;;;;;;;149.80;142.10;;;;;;;;;;5464541;26;20002;-57
2024/04/11 11:37:03;;;;;;;158.50;150.63;;;;;;;;;;5469308;26;19998;-59
2024/04/11 11:39:42;;;;;;;160.00;152.00;;;;;;;;;;5474321;26;20423;-60
2024/04/11 11:42:08;;;;;;;170.77;162.27;;;;;;;;;;5471484;26;20423;-59
2024/04/11 11:45:05;;;;;;;151.70;144.13;;;;;;;;;;5474270;26;20002;-60
2024/04/11 11:47:34;;;;;;;135.40;128.45;;;;;;;;;;5472404;26;19998;-59
2024/04/11 11:50:10;;;;;;;156.45;148.70;;;;;;;;;;5476928;26;20375;-59
2024/04/11 11:52:36;;;;;;;124.75;118.60;;;;;;;;;;5484258;26;20420;-60
2024/04/11 11:55:05;;;;;;;155.35;147.68;;;;;;;;;;5477774;26;20002;-60
2024/04/11 11:57:39;;;;;;;138.45;131.60;;;;;;;;;;5466508;26;20495;-61
2024/04/11 12:00:21;;;;;;;152.23;144.68;;;;;;;;;;5472172;26;20014;-61
2024/04/11 12:02:51;;;;;;;139.10;132.05;;;;;;;;;;5474589;26;20017;-60
2024/04/11 12:05:27;;;;;;;150.57;143.05;;;;;;;;;;5484726;26;20004;-61
2024/04/11 12:07:57;;;;;;;162.20;154.15;;;;;;;;;;5478136;26;20020;-60
2024/04/11 12:10:29;;;;;;;161.23;153.25;;;;;;;;;;5464417;26;20006;-61
2024/04/11 12:13:18;;;;;;;161.98;153.98;;;;;;;;;;5468215;26;20010;-61
2024/04/11 12:15:44;;;;;;;163.43;155.10;;;;;;;;;;5473706;26;19998;-61
2024/04/11 12:18:11;;;;;;;168.50;160.15;;;;;;;;;;5465382;26;20359;-61
2024/04/11 12:20:39;;;;;;;162.88;154.63;;;;;;;;;;5472020;26;20016;-60
2024/04/11 12:23:06;;;;;;;146.10;138.90;;;;;;;;;;5471930;26;20436;-60
2024/04/11 12:25:32;;;;;;;135.90;129.15;;;;;;;;;;5477215;26;20002;-60
2024/04/11 12:27:58;;;;;;;131.18;124.38;;;;;;;;;;5474806;26;20387;-59
2024/04/11 12:30:23;;;;;;;133.45;126.78;;;;;;;;;;5477733;26;20675;-59
2024/04/11 12:32:48;;;;;;;121.20;115.20;;;;;;;;;;5479333;26;20064;-59
2024/04/11 12:35:17;;;;;;;119.40;113.50;;;;;;;;;;5469291;26;20003;-60
2024/04/11 12:37:46;;;;;;;104.97;99.82;;;;;;;;;;5475179;25;19998;-59
2024/04/11 12:40:13;;;;;;;108.05;102.47;;;;;;;;;;5472567;26;20008;-60
2024/04/11 12:42:38;;;;;;;108.07;102.72;;;;;;;;;;5470760;26;20063;-59
2024/04/11 12:45:07;;;;;;;98.05;93.20;;;;;;;;;;5478061;26;20013;-60
2024/04/11 12:47:39;;;;;;;96.15;91.38;;;;;;;;;;5473949;26;19998;-60
2024/04/11 12:50:12;;;;;;;98.22;93.05;;;;;;;;;;5484872;26;20002;-59
2024/04/11 12:52:44;;;;;;;91.97;87.45;;;;;;;;;;5469427;26;20414;-60
2024/04/11 12:55:11;;;;;;;91.75;86.97;;;;;;;;;;5468038;26;20422;-60
2024/04/11 12:57:37;;;;;;;86.95;82.60;;;;;;;;;;5470650;26;20415;-59
2024/04/11 13:00:34;;;;;;;84.60;80.40;;;;;;;;;;5478517;26;20002;-60
2024/04/11 13:05:52;;;;;;;75.82;72.00;;;;;;;;;;5473242;26;20003;-61
2024/04/11 13:08:22;;;;;;;90.32;85.85;;;;;;;;;;5474075;26;20050;-59
2024/04/11 13:10:49;;;;;;;100.95;95.88;;;;;;;;;;5469657;26;20002;-59
2024/04/11 13:13:23;;;;;;;96.60;91.32;;;;;;;;;;5462490;26;20010;-59
2024/04/11 13:15:59;;;;;;;101.13;96.07;;;;;;;;;;5476439;26;20006;-61
2024/04/11 13:18:28;;;;;;;92.22;87.60;;;;;;;;;;5467968;26;19999;-59
2024/04/11 13:20:55;;;;;;;81.63;77.55;;;;;;;;;;5468967;26;20006;-59
2024/04/11 13:23:21;;;;;;;81.15;77.07;;;;;;;;;;5470629;26;20329;-60
2024/04/11 13:25:47;;;;;;;77.50;73.63;;;;;;;;;;5473342;26;20076;-59
2024/04/11 13:28:16;;;;;;;77.20;73.38;;;;;;;;;;5473636;26;20391;-60
2024/04/11 13:30:42;;;;;;;74.05;70.32;;;;;;;;;;5462721;26;20012;-61
2024/04/11 13:33:14;;;;;;;84.13;79.88;;;;;;;;;;5472768;26;20024;-60
2024/04/11 13:35:48;;;;;;;88.40;84.00;;;;;;;;;;5467482;26;20012;-59
2024/04/11 13:38:16;;;;;;;92.20;87.68;;;;;;;;;;5470458;26;20029;-56
2024/04/11 13:43:09;;;;;;;93.13;88.22;;;;;;;;;;5471213;26;20373;-61
2024/04/11 13:45:40;;;;;;;91.30;86.80;;;;;;;;;;5474816;26;20002;-61
2024/04/11 13:48:07;;;;;;;93.32;88.68;;;;;;;;;;5471620;26;20014;-59
2024/04/11 13:50:52;;;;;;;102.53;97.25;;;;;;;;;;5474287;26;21099;-60
2024/04/11 13:53:21;;;;;;;115.30;109.53;;;;;;;;;;5475309;26;20016;-59
2024/04/11 13:55:53;;;;;;;120.93;114.93;;;;;;;;;;5480348;25;20013;-59
2024/04/11 13:58:21;;;;;;;112.13;106.60;;;;;;;;;;5473566;26;20307;-59
2024/04/11 14:01:03;;;;;;;138.75;131.85;;;;;;;;;;5465368;26;20007;-59
2024/04/11 14:06:57;;;;;;;135.95;129.20;;;;;;;;;;5456675;26;19998;-60
2024/04/11 14:09:19;;;;;;;125.03;118.85;;;;;;;;;;5473491;26;20063;-59
2024/04/11 14:11:46;;;;;;;121.43;115.38;;;;;;;;;;5465213;26;20007;-61
2024/04/11 14:14:12;;;;;;;130.02;123.55;;;;;;;;;;5473167;26;20058;-61
2024/04/11 14:16:53;;;;;;;118.13;111.57;;;;;;;;;;5469663;26;20010;-61
2024/04/11 14:19:35;;;;;;;116.47;110.70;;;;;;;;;;5469446;26;19998;-61
2024/04/11 14:22:08;;;;;;;115.25;109.50;;;;;;;;;;5468018;26;20013;-58
2024/04/11 14:24:39;;;;;;;114.53;108.88;;;;;;;;;;5470968;26;20083;-58